createdAt,value
2018-11-11T00:00:26.507Z,91.90
2018-11-11T00:02:55.438Z,91.90
2018-11-11T00:05:23.943Z,91.80
2018-11-11T00:07:52.469Z,91.90
2018-11-11T00:10:20.925Z,91.80
2018-11-11T00:12:49.453Z,92.00
2018-11-11T00:15:18.431Z,92.00
2018-11-11T00:17:47.736Z,91.70
2018-11-11T00:20:16.227Z,91.60
2018-11-11T00:22:44.725Z,91.60
2018-11-11T00:25:14.196Z,91.40
2018-11-11T00:27:42.659Z,91.40
2018-11-11T00:30:16.284Z,91.40
2018-11-11T00:32:44.826Z,91.40
2018-11-11T00:35:13.299Z,91.40
2018-11-11T00:37:42.031Z,91.30
2018-11-11T00:40:11.851Z,91.30
2018-11-11T00:42:40.411Z,91.20
2018-11-11T00:45:09.655Z,91.10
2018-11-11T00:47:38.099Z,91.30
2018-11-11T00:50:08.217Z,91.30
2018-11-11T00:52:36.817Z,91.20
2018-11-11T00:55:06.834Z,91.40
2018-11-11T00:57:35.325Z,91.30
2018-11-11T01:00:04.303Z,91.20
2018-11-11T01:02:32.801Z,91.10
2018-11-11T01:05:01.271Z,91.20
2018-11-11T01:07:29.775Z,91.20
2018-11-11T01:09:58.238Z,90.90
2018-11-11T01:12:26.766Z,91.00
2018-11-11T01:14:55.267Z,91.00
2018-11-11T01:17:23.773Z,91.10
2018-11-11T01:19:52.243Z,91.10
2018-11-11T01:22:20.727Z,90.90
2018-11-11T01:24:49.203Z,90.90
2018-11-11T01:27:17.703Z,91.00
2018-11-11T01:29:46.247Z,91.00
2018-11-11T01:32:14.719Z,91.00
2018-11-11T01:34:43.211Z,91.00
2018-11-11T01:37:11.782Z,91.00
2018-11-11T01:39:40.291Z,91.00
2018-11-11T01:42:08.800Z,90.70
2018-11-11T01:44:37.333Z,90.60
2018-11-11T01:47:06.016Z,90.50
2018-11-11T01:49:34.514Z,90.50
2018-11-11T01:52:03.008Z,90.50
2018-11-11T01:54:31.487Z,90.60
2018-11-11T01:57:02.912Z,90.70
2018-11-11T01:59:31.391Z,90.90
2018-11-11T02:01:59.870Z,91.00
2018-11-11T02:04:28.355Z,91.00
2018-11-11T02:06:56.825Z,91.00
2018-11-11T02:09:25.299Z,91.10
2018-11-11T02:11:53.765Z,90.90
2018-11-11T02:14:22.295Z,90.90
2018-11-11T02:16:50.767Z,91.00
2018-11-11T02:19:19.815Z,91.10
2018-11-11T02:21:48.376Z,91.30
2018-11-11T02:24:16.945Z,91.40
2018-11-11T02:26:45.432Z,91.60
2018-11-11T02:29:13.945Z,91.70
2018-11-11T02:31:42.432Z,91.80
2018-11-11T02:34:10.903Z,92.00
2018-11-11T02:36:39.404Z,92.20
2018-11-11T02:39:09.096Z,92.30
2018-11-11T02:41:37.576Z,92.50
2018-11-11T02:44:06.083Z,92.50
2018-11-11T02:46:34.566Z,92.70
2018-11-11T02:49:03.020Z,92.60
2018-11-11T02:51:31.547Z,93.00
2018-11-11T02:54:00.047Z,93.00
2018-11-11T02:56:28.620Z,93.30
2018-11-11T02:58:57.104Z,93.40
2018-11-11T03:01:25.631Z,93.60
2018-11-11T03:03:54.133Z,93.80
2018-11-11T03:06:22.615Z,93.90
2018-11-11T03:08:51.165Z,93.90
2018-11-11T03:11:19.642Z,93.90
2018-11-11T03:13:48.075Z,93.80
2018-11-11T03:16:16.565Z,94.00
2018-11-11T03:18:51.662Z,94.10
2018-11-11T03:21:20.268Z,94.40
2018-11-11T03:23:48.767Z,94.50
2018-11-11T03:26:17.266Z,94.80
2018-11-11T03:28:45.753Z,94.80
2018-11-11T03:31:14.203Z,94.80
2018-11-11T03:33:42.685Z,94.70
2018-11-11T03:36:11.327Z,94.80
2018-11-11T03:38:39.880Z,95.10
2018-11-11T03:41:08.407Z,94.90
2018-11-11T03:43:37.029Z,95.00
2018-11-11T03:46:05.512Z,94.90
2018-11-11T03:48:34.036Z,95.20
2018-11-11T03:51:02.511Z,95.30
2018-11-11T03:53:30.979Z,95.30
2018-11-11T03:55:59.524Z,95.60
2018-11-11T03:58:28.028Z,95.60
2018-11-11T04:00:56.504Z,95.80
2018-11-11T04:03:25.041Z,95.80
2018-11-11T04:05:54.352Z,95.70
2018-11-11T04:08:22.812Z,95.60
2018-11-11T04:10:51.326Z,95.80
2018-11-11T04:13:19.804Z,95.80
2018-11-11T04:15:48.298Z,96.00
2018-11-11T04:18:16.805Z,96.00
2018-11-11T04:20:45.355Z,96.20
2018-11-11T04:23:13.843Z,96.10
2018-11-11T04:25:42.326Z,96.30
2018-11-11T04:28:10.784Z,96.20
2018-11-11T04:30:39.290Z,96.30
2018-11-11T04:33:07.763Z,96.40
2018-11-11T04:35:36.273Z,96.40
2018-11-11T04:38:04.983Z,96.40
2018-11-11T04:40:33.498Z,96.40
2018-11-11T04:43:02.012Z,96.40
2018-11-11T04:45:30.547Z,96.10
2018-11-11T04:47:59.079Z,96.20
2018-11-11T04:50:27.567Z,96.20
2018-11-11T04:52:56.045Z,96.40
2018-11-11T04:55:24.567Z,96.20
2018-11-11T04:57:53.034Z,96.00
2018-11-11T05:00:21.549Z,96.40
2018-11-11T05:02:50.036Z,96.40
2018-11-11T05:05:18.512Z,96.30
2018-11-11T05:07:47.023Z,96.30
2018-11-11T05:10:15.542Z,96.20
2018-11-11T05:12:43.999Z,96.00
2018-11-11T05:15:13.411Z,96.20
2018-11-11T05:17:41.954Z,96.40
2018-11-11T05:20:11.410Z,96.40
2018-11-11T05:22:40.114Z,96.60
2018-11-11T05:25:10.477Z,96.50
2018-11-11T05:27:38.956Z,96.60
2018-11-11T05:30:08.994Z,96.50
2018-11-11T05:32:37.494Z,96.50
2018-11-11T05:35:06.173Z,96.70
2018-11-11T05:37:34.627Z,96.60
2018-11-11T05:40:03.159Z,96.70
2018-11-11T05:42:31.600Z,96.80
2018-11-11T05:45:00.109Z,96.80
2018-11-11T05:47:28.665Z,96.80
2018-11-11T05:49:57.126Z,96.90
2018-11-11T05:52:25.599Z,97.00
2018-11-11T05:54:54.118Z,97.10
2018-11-11T05:57:22.626Z,97.10
2018-11-11T05:59:51.155Z,97.20
2018-11-11T06:02:19.671Z,97.20
2018-11-11T06:04:48.172Z,97.10
2018-11-11T06:07:16.662Z,97.20
2018-11-11T06:09:45.174Z,97.20
2018-11-11T06:12:13.619Z,97.30
2018-11-11T06:14:42.089Z,97.30
2018-11-11T06:17:10.587Z,97.40
2018-11-11T06:19:39.123Z,97.50
2018-11-11T06:22:07.613Z,97.40
2018-11-11T06:24:36.113Z,97.60
2018-11-11T06:27:04.783Z,97.70
2018-11-11T06:29:33.275Z,97.60
2018-11-11T06:32:01.780Z,97.50
2018-11-11T06:34:30.233Z,97.60
2018-11-11T06:36:59.179Z,97.70
2018-11-11T06:39:27.702Z,97.80
2018-11-11T06:41:56.171Z,97.80
2018-11-11T06:44:24.721Z,97.70
2018-11-11T06:46:53.253Z,97.80
2018-11-11T06:49:21.696Z,97.70
2018-11-11T06:51:50.184Z,97.60
2018-11-11T06:54:18.854Z,97.70
2018-11-11T06:56:47.312Z,97.70
2018-11-11T06:59:15.803Z,97.70
2018-11-11T07:01:44.390Z,97.50
2018-11-11T07:04:12.856Z,97.50
2018-11-11T07:06:41.350Z,97.60
2018-11-11T07:09:09.826Z,97.50
2018-11-11T07:11:38.311Z,97.40
2018-11-11T07:14:06.830Z,97.20
2018-11-11T07:16:35.254Z,97.20
2018-11-11T07:19:03.718Z,96.80
2018-11-11T07:21:32.170Z,96.90
2018-11-11T07:24:00.700Z,96.80
2018-11-11T07:26:29.227Z,96.60
2018-11-11T07:28:57.727Z,96.60
2018-11-11T07:31:26.299Z,96.70
2018-11-11T07:33:54.767Z,96.40
2018-11-11T07:36:23.223Z,96.40
2018-11-11T07:38:51.732Z,96.00
2018-11-11T07:41:20.243Z,96.00
2018-11-11T07:43:48.763Z,95.90
2018-11-11T07:46:17.293Z,96.00
2018-11-11T07:48:45.908Z,96.00
2018-11-11T07:51:14.401Z,95.90
2018-11-11T07:53:42.908Z,95.70
2018-11-11T07:56:11.396Z,95.50
2018-11-11T07:58:40.012Z,95.30
2018-11-11T08:01:08.622Z,95.30
2018-11-11T08:03:37.178Z,95.10
2018-11-11T08:06:05.700Z,95.00
2018-11-11T08:08:34.280Z,94.90
2018-11-11T08:11:14.135Z,94.90
2018-11-11T08:13:42.712Z,94.90
2018-11-11T08:16:11.267Z,94.80
2018-11-11T08:18:39.767Z,94.90
2018-11-11T08:21:08.351Z,94.90
2018-11-11T08:23:37.325Z,95.00
2018-11-11T08:26:06.000Z,94.90
2018-11-11T08:28:34.657Z,94.80
2018-11-11T08:31:03.951Z,94.60
2018-11-11T08:33:32.627Z,94.60
2018-11-11T08:36:01.151Z,94.60
2018-11-11T08:38:29.677Z,94.70
2018-11-11T08:40:58.143Z,94.40
2018-11-11T08:43:26.809Z,94.00
2018-11-11T08:45:55.403Z,93.30
2018-11-11T08:48:24.056Z,92.70
2018-11-11T08:50:52.510Z,92.20
2018-11-11T08:53:21.092Z,92.00
2018-11-11T08:55:49.645Z,91.50
2018-11-11T08:58:18.244Z,90.90
2018-11-11T09:00:46.844Z,90.40
2018-11-11T09:03:15.388Z,90.50
2018-11-11T09:05:44.004Z,90.70
2018-11-11T09:08:12.529Z,90.50
2018-11-11T09:10:41.042Z,90.10
2018-11-11T09:13:09.606Z,90.20
2018-11-11T09:15:39.244Z,90.50
2018-11-11T09:18:07.814Z,90.20
2018-11-11T09:20:36.930Z,90.40
2018-11-11T09:23:05.602Z,90.80
2018-11-11T09:25:34.200Z,90.20
2018-11-11T09:28:02.820Z,90.20
2018-11-11T09:30:31.388Z,89.10
2018-11-11T09:32:59.948Z,88.60
2018-11-11T09:35:28.514Z,88.20
2018-11-11T09:37:57.011Z,88.70
2018-11-11T09:40:25.512Z,88.40
2018-11-11T09:42:54.071Z,88.70
2018-11-11T09:45:22.667Z,88.50
2018-11-11T09:47:51.266Z,89.20
2018-11-11T09:50:19.853Z,89.00
2018-11-11T09:52:48.555Z,87.90
2018-11-11T09:55:17.102Z,87.40
2018-11-11T09:57:45.683Z,88.20
2018-11-11T10:00:22.404Z,88.80
2018-11-11T10:03:01.641Z,89.10
2018-11-11T10:05:38.721Z,88.90
2018-11-11T10:08:23.286Z,89.50
2018-11-11T10:10:56.879Z,90.10
2018-11-11T10:15:35.641Z,90.00
2018-11-11T10:18:17.059Z,90.30
2018-11-11T10:20:53.193Z,90.70
2018-11-11T10:23:27.023Z,91.00
2018-11-11T10:26:01.068Z,91.30
2018-11-11T10:28:35.413Z,91.10
2018-11-11T10:31:22.104Z,91.00
2018-11-11T10:33:57.828Z,90.80
2018-11-11T10:36:32.666Z,90.50
2018-11-11T10:39:08.522Z,90.50
2018-11-11T10:43:47.531Z,90.80
2018-11-11T10:46:25.159Z,90.30
2018-11-11T10:48:57.354Z,90.20
2018-11-11T10:51:25.940Z,90.10
2018-11-11T10:53:54.630Z,90.00
2018-11-11T10:56:23.129Z,90.00
2018-11-11T10:58:51.759Z,89.80
2018-11-11T11:01:25.632Z,89.60
2018-11-11T11:03:54.148Z,89.50
2018-11-11T11:07:25.759Z,87.80
2018-11-11T11:09:54.267Z,87.20
2018-11-11T11:12:22.789Z,86.00
2018-11-11T11:14:51.363Z,86.40
2018-11-11T11:17:19.931Z,86.10
2018-11-11T11:19:52.652Z,87.30
2018-11-11T11:22:21.225Z,87.00
2018-11-11T11:24:49.982Z,87.00
2018-11-11T11:27:18.613Z,86.70
2018-11-11T11:29:47.276Z,86.10
2018-11-11T11:32:15.935Z,85.90
2018-11-11T11:34:44.485Z,85.90
2018-11-11T11:37:14.045Z,86.20
2018-11-11T11:39:42.957Z,86.10
2018-11-11T11:42:11.512Z,86.10
2018-11-11T11:44:40.112Z,86.40
2018-11-11T11:47:08.639Z,86.10
2018-11-11T11:49:37.406Z,85.90
2018-11-11T11:52:06.731Z,86.20
2018-11-11T11:54:35.779Z,86.20
2018-11-11T11:57:05.010Z,86.70
2018-11-11T11:59:33.558Z,86.30
2018-11-11T12:02:03.206Z,86.30
2018-11-11T12:04:33.063Z,86.20
2018-11-11T12:07:01.835Z,86.20
2018-11-11T12:09:30.467Z,86.80
2018-11-11T12:11:59.047Z,86.70
2018-11-11T12:14:27.511Z,86.20
2018-11-11T12:16:56.246Z,86.60
2018-11-11T12:19:31.798Z,86.30
2018-11-11T12:22:00.414Z,86.10
2018-11-11T12:24:29.105Z,85.30
2018-11-11T12:26:57.759Z,83.90
2018-11-11T12:29:26.333Z,84.20
2018-11-11T12:31:55.298Z,84.20
2018-11-11T12:34:24.188Z,83.40
2018-11-11T12:36:53.804Z,83.00
2018-11-11T12:39:22.373Z,82.80
2018-11-11T12:41:57.451Z,83.00
2018-11-11T12:44:35.403Z,82.50
2018-11-11T12:47:04.034Z,82.60
2018-11-11T12:49:32.641Z,82.50
2018-11-11T12:52:01.342Z,82.50
2018-11-11T12:54:29.896Z,82.60
2018-11-11T12:56:58.516Z,83.30
2018-11-11T12:59:27.061Z,82.60
2018-11-11T13:01:55.802Z,82.90
2018-11-11T13:04:24.493Z,82.50
2018-11-11T13:06:53.097Z,82.40
2018-11-11T13:09:21.859Z,82.10
2018-11-11T13:11:50.576Z,81.50
2018-11-11T13:14:19.307Z,81.40
2018-11-11T13:16:47.986Z,81.40
2018-11-11T13:19:16.525Z,80.70
2018-11-11T13:21:45.040Z,80.30
2018-11-11T13:24:13.827Z,80.20
2018-11-11T13:26:42.347Z,80.00
2018-11-11T13:29:11.025Z,79.30
2018-11-11T13:31:39.635Z,79.00
2018-11-11T13:34:08.284Z,78.90
2018-11-11T13:36:36.814Z,78.30
2018-11-11T13:39:09.024Z,77.70
2018-11-11T13:41:37.610Z,76.00
2018-11-11T13:44:09.058Z,76.10
2018-11-11T13:46:38.708Z,75.00
2018-11-11T13:49:07.142Z,75.00
2018-11-11T13:51:36.530Z,75.10
2018-11-11T13:54:05.457Z,74.80
2018-11-11T13:56:34.678Z,75.50
2018-11-11T13:59:03.256Z,75.50
2018-11-11T14:01:31.924Z,76.00
2018-11-11T14:04:00.508Z,76.00
2018-11-11T14:06:29.034Z,76.20
2018-11-11T14:08:57.556Z,76.60
2018-11-11T14:11:26.100Z,77.40
2018-11-11T14:13:54.918Z,77.30
2018-11-11T14:16:23.439Z,78.40
2018-11-11T14:18:52.693Z,78.60
2018-11-11T14:21:20.987Z,79.30
2018-11-11T14:23:49.952Z,79.40
2018-11-11T14:26:18.642Z,80.10
2018-11-11T14:28:47.069Z,80.60
2018-11-11T14:31:16.585Z,81.20
2018-11-11T14:33:45.114Z,81.80
2018-11-11T14:36:13.653Z,82.20
2018-11-11T14:38:42.220Z,82.50
2018-11-11T14:41:10.768Z,82.10
2018-11-11T14:43:39.402Z,82.10
2018-11-11T14:46:08.068Z,82.20
2018-11-11T14:48:36.598Z,82.20
2018-11-11T14:51:05.192Z,81.50
2018-11-11T14:53:33.773Z,81.80
2018-11-11T14:56:02.364Z,81.90
2018-11-11T14:58:31.167Z,81.30
2018-11-11T15:01:00.717Z,81.20
2018-11-11T15:03:29.300Z,81.10
2018-11-11T15:05:57.845Z,80.10
2018-11-11T15:08:26.449Z,80.30
2018-11-11T15:10:55.134Z,81.30
2018-11-11T15:13:23.673Z,80.90
2018-11-11T15:15:52.279Z,80.70
2018-11-11T15:18:20.777Z,81.20
2018-11-11T15:20:49.476Z,82.00
2018-11-11T15:23:18.499Z,82.10
2018-11-11T15:25:46.993Z,82.70
2018-11-11T15:28:16.102Z,83.20
2018-11-11T15:30:44.750Z,83.60
2018-11-11T15:33:14.556Z,83.50
2018-11-11T15:35:43.180Z,83.90
2018-11-11T15:38:11.717Z,84.30
2018-11-11T15:40:40.270Z,84.80
2018-11-11T15:43:08.900Z,85.20
2018-11-11T15:45:37.557Z,85.40
2018-11-11T15:48:07.641Z,85.50
2018-11-11T15:50:36.790Z,85.80
2018-11-11T15:53:06.756Z,85.90
2018-11-11T15:55:36.535Z,86.00
2018-11-11T15:58:05.565Z,86.00
2018-11-11T16:00:36.340Z,86.10
2018-11-11T16:03:05.229Z,86.40
2018-11-11T16:05:33.892Z,87.10
2018-11-11T16:08:03.167Z,86.00
2018-11-11T16:10:32.701Z,86.10
2018-11-11T16:13:01.459Z,86.20
2018-11-11T16:15:34.476Z,86.40
2018-11-11T16:18:05.109Z,86.60
2018-11-11T16:20:33.842Z,86.40
2018-11-11T16:23:03.489Z,86.80
2018-11-11T16:25:32.175Z,86.90
2018-11-11T16:28:00.951Z,87.20
2018-11-11T16:30:31.737Z,87.20
2018-11-11T16:33:00.839Z,87.20
2018-11-11T16:35:30.340Z,87.30
2018-11-11T16:37:59.587Z,87.80
2018-11-11T16:40:29.694Z,88.80
2018-11-11T16:42:58.438Z,88.40
2018-11-11T16:45:28.459Z,88.50
2018-11-11T16:47:57.386Z,88.50
2018-11-11T16:50:28.596Z,88.40
2018-11-11T16:52:58.622Z,88.60
2018-11-11T16:55:28.408Z,88.50
2018-11-11T16:57:57.010Z,88.40
2018-11-11T17:00:27.858Z,88.60
2018-11-11T17:02:57.572Z,88.70
2018-11-11T17:05:27.529Z,88.80
2018-11-11T17:07:56.439Z,89.30
2018-11-11T17:10:26.439Z,89.70
2018-11-11T17:12:56.236Z,90.10
2018-11-11T17:15:26.449Z,90.40
2018-11-11T17:17:55.184Z,90.30
2018-11-11T17:20:24.674Z,90.40
2018-11-11T17:22:55.289Z,90.50
2018-11-11T17:25:24.564Z,90.60
2018-11-11T17:27:53.396Z,90.30
2018-11-11T17:30:23.793Z,90.30
2018-11-11T17:32:53.079Z,90.30
2018-11-11T17:35:21.805Z,90.00
2018-11-11T17:37:50.599Z,90.00
2018-11-11T17:40:21.984Z,90.00
2018-11-11T17:42:51.608Z,90.00
2018-11-11T17:45:20.393Z,89.70
2018-11-11T17:47:50.994Z,90.00
2018-11-11T17:50:25.178Z,90.00
2018-11-11T17:52:53.805Z,90.00
2018-11-11T17:55:23.995Z,90.10
2018-11-11T17:57:52.585Z,90.40
2018-11-11T18:00:23.075Z,90.50
2018-11-11T18:02:51.964Z,90.70
2018-11-11T18:05:21.871Z,91.00
2018-11-11T18:07:50.526Z,90.90
2018-11-11T18:10:20.473Z,91.00
2018-11-11T18:12:49.153Z,90.90
2018-11-11T18:15:19.205Z,90.70
2018-11-11T18:17:47.856Z,90.80
2018-11-11T18:20:17.977Z,90.80
2018-11-11T18:22:47.139Z,91.00
2018-11-11T18:25:15.770Z,90.90
2018-11-11T18:27:44.613Z,91.00
2018-11-11T18:30:17.541Z,90.90
2018-11-11T18:32:46.592Z,90.90
2018-11-11T18:35:16.153Z,90.90
2018-11-11T18:37:44.821Z,90.90
2018-11-11T18:40:14.891Z,91.00
2018-11-11T18:42:43.925Z,91.00
2018-11-11T18:45:14.536Z,91.10
2018-11-11T18:47:43.669Z,91.10
2018-11-11T18:50:15.725Z,91.20
2018-11-11T18:52:44.671Z,91.20
2018-11-11T18:55:13.656Z,91.10
2018-11-11T18:57:42.840Z,91.40
2018-11-11T19:00:14.161Z,91.40
2018-11-11T19:02:43.468Z,91.50
2018-11-11T19:05:13.529Z,91.60
2018-11-11T19:07:42.546Z,92.00
2018-11-11T19:10:13.685Z,91.60
2018-11-11T19:12:43.332Z,91.60
2018-11-11T19:15:13.278Z,91.70
2018-11-11T19:17:42.872Z,91.70
2018-11-11T19:20:13.991Z,91.80
2018-11-11T19:22:42.711Z,91.80
2018-11-11T19:25:13.642Z,91.80
2018-11-11T19:27:43.404Z,91.70
2018-11-11T19:30:13.244Z,91.70
2018-11-11T19:32:42.532Z,91.70
2018-11-11T19:35:12.163Z,91.80
2018-11-11T19:37:41.037Z,91.70
2018-11-11T19:40:13.375Z,91.70
2018-11-11T19:42:42.394Z,91.60
2018-11-11T19:45:12.340Z,91.70
2018-11-11T19:47:41.522Z,91.70
2018-11-11T19:50:12.423Z,91.60
2018-11-11T19:52:42.436Z,91.60
2018-11-11T19:55:12.099Z,91.60
2018-11-11T19:57:40.913Z,91.40
2018-11-11T20:00:12.850Z,91.20
2018-11-11T20:02:42.923Z,90.80
2018-11-11T20:05:12.988Z,90.60
2018-11-11T20:07:42.589Z,90.40
2018-11-11T20:10:12.745Z,90.30
2018-11-11T20:12:41.374Z,90.20
2018-11-11T20:15:15.598Z,90.10
2018-11-11T20:17:45.035Z,90.00
2018-11-11T20:20:16.092Z,90.00
2018-11-11T20:22:44.869Z,90.10
2018-11-11T20:25:14.583Z,90.10
2018-11-11T20:30:52.063Z,90.10
2018-11-11T20:33:20.679Z,89.80
2018-11-11T20:35:50.040Z,90.00
2018-11-11T20:38:29.793Z,90.00
2018-11-11T20:43:36.974Z,89.90
2018-11-11T20:46:19.067Z,90.00
2018-11-11T20:48:47.750Z,90.00
2018-11-11T20:51:16.489Z,90.00
2018-11-11T20:53:45.183Z,90.00
2018-11-11T20:56:13.897Z,90.10
2018-11-11T20:58:43.877Z,90.00
2018-11-11T21:01:30.387Z,90.00
2018-11-11T21:08:18.259Z,90.20
2018-11-11T21:10:47.325Z,90.20
2018-11-11T21:13:15.980Z,90.20
2018-11-11T21:15:54.266Z,90.10
2018-11-11T21:21:18.126Z,90.10
2018-11-11T21:23:50.324Z,90.20
2018-11-11T21:26:19.051Z,90.20
2018-11-11T21:28:47.611Z,90.20
2018-11-11T21:31:17.210Z,90.30
2018-11-11T21:33:46.684Z,90.20
2018-11-11T21:36:15.264Z,90.20
2018-11-11T21:38:43.850Z,90.10
2018-11-11T21:41:12.380Z,90.00
2018-11-11T21:50:10.798Z,90.30
2018-11-11T21:52:39.435Z,90.30
2018-11-11T21:55:09.899Z,90.20
2018-11-11T21:57:38.548Z,90.30
2018-11-11T22:00:09.764Z,90.20
2018-11-11T22:02:38.321Z,90.30
2018-11-11T22:05:08.532Z,90.30
2018-11-11T22:07:43.605Z,90.30
2018-11-11T22:10:13.850Z,90.40
2018-11-11T22:12:42.441Z,90.60
2018-11-11T22:15:20.197Z,90.70
2018-11-11T22:17:48.879Z,90.90
2018-11-11T22:20:17.455Z,90.80
2018-11-11T22:22:46.011Z,91.00
2018-11-11T22:25:14.577Z,90.90
2018-11-11T22:27:43.167Z,90.90
2018-11-11T22:30:12.481Z,91.00
2018-11-11T22:32:41.118Z,90.80
2018-11-11T22:35:10.861Z,90.90
2018-11-11T22:37:39.600Z,91.20
2018-11-11T22:40:10.245Z,91.30
2018-11-11T22:43:05.671Z,91.50
2018-11-11T22:45:34.954Z,91.60
2018-11-11T22:48:03.621Z,91.70
2018-11-11T22:50:32.220Z,91.80
2018-11-11T22:53:00.917Z,91.80
2018-11-11T22:55:29.507Z,91.90
2018-11-11T22:57:58.011Z,91.40
2018-11-11T23:00:29.680Z,91.30
2018-11-11T23:02:58.461Z,91.20
2018-11-11T23:05:27.166Z,91.10
2018-11-11T23:08:22.648Z,91.40
2018-11-11T23:10:53.922Z,91.50
2018-11-11T23:13:22.424Z,91.50
2018-11-11T23:16:03.558Z,91.60
2018-11-11T23:18:31.998Z,91.80
2018-11-11T23:21:00.491Z,91.80
2018-11-11T23:23:29.040Z,91.80
2018-11-11T23:25:57.573Z,91.70
2018-11-11T23:28:26.135Z,91.70
2018-11-11T23:30:54.725Z,91.70
2018-11-11T23:33:23.240Z,91.90
2018-11-11T23:35:51.758Z,91.90
2018-11-11T23:38:20.288Z,91.90
2018-11-11T23:40:48.842Z,91.90
2018-11-11T23:43:22.608Z,91.80
2018-11-11T23:45:51.106Z,92.00
2018-11-11T23:48:19.668Z,91.60
2018-11-11T23:50:48.293Z,91.70
2018-11-11T23:53:16.796Z,91.70
2018-11-11T23:55:45.300Z,91.60
2018-11-11T23:58:13.839Z,91.40
